sensor_id;sensor_type;location;lat;lon;timestamp;P1;durP1;ratioP1;P2;durP2;ratioP2
67997;SDS011;54773;53.388;-1.504;2023-04-24T00:00:04;6.57;;;2.40;;
67997;SDS011;54773;53.388;-1.504;2023-04-24T00:03:01;5.10;;;1.98;;
67997;SDS011;54773;53.388;-1.504;2023-04-24T00:05:46;3.92;;;1.60;;
67997;SDS011;54773;53.388;-1.504;2023-04-24T00:08:31;8.27;;;2.17;;
67997;SDS011;54773;53.388;-1.504;2023-04-24T00:11:15;4.47;;;1.87;;
67997;SDS011;54773;53.388;-1.504;2023-04-24T00:13:59;7.13;;;2.03;;
67997;SDS011;54773;53.388;-1.504;2023-04-24T00:16:42;6.43;;;2.00;;
67997;SDS011;54773;53.388;-1.504;2023-04-24T00:19:26;6.53;;;2.00;;
67997;SDS011;54773;53.388;-1.504;2023-04-24T00:22:10;5.63;;;1.88;;
67997;SDS011;54773;53.388;-1.504;2023-04-24T00:24:54;5.53;;;1.90;;
67997;SDS011;54773;53.388;-1.504;2023-04-24T00:27:38;9.37;;;2.00;;
67997;SDS011;54773;53.388;-1.504;2023-04-24T00:30:22;6.57;;;1.60;;
67997;SDS011;54773;53.388;-1.504;2023-04-24T00:33:06;6.22;;;2.00;;
67997;SDS011;54773;53.388;-1.504;2023-04-24T00:35:50;6.90;;;2.10;;
67997;SDS011;54773;53.388;-1.504;2023-04-24T00:38:34;4.03;;;1.73;;
67997;SDS011;54773;53.388;-1.504;2023-04-24T00:41:18;7.03;;;1.75;;
67997;SDS011;54773;53.388;-1.504;2023-04-24T00:44:02;5.13;;;1.73;;
67997;SDS011;54773;53.388;-1.504;2023-04-24T00:46:46;10.05;;;1.85;;
67997;SDS011;54773;53.388;-1.504;2023-04-24T00:49:30;4.95;;;1.98;;
67997;SDS011;54773;53.388;-1.504;2023-04-24T00:52:14;6.78;;;2.05;;
67997;SDS011;54773;53.388;-1.504;2023-04-24T00:55:01;7.95;;;1.80;;
67997;SDS011;54773;53.388;-1.504;2023-04-24T00:57:45;4.85;;;1.65;;
67997;SDS011;54773;53.388;-1.504;2023-04-24T01:00:30;6.53;;;1.70;;
67997;SDS011;54773;53.388;-1.504;2023-04-24T01:03:17;5.35;;;2.15;;
67997;SDS011;54773;53.388;-1.504;2023-04-24T01:06:02;6.50;;;1.60;;
67997;SDS011;54773;53.388;-1.504;2023-04-24T01:08:47;3.88;;;1.48;;
67997;SDS011;54773;53.388;-1.504;2023-04-24T01:11:31;5.28;;;1.50;;
67997;SDS011;54773;53.388;-1.504;2023-04-24T01:14:15;6.53;;;1.65;;
67997;SDS011;54773;53.388;-1.504;2023-04-24T01:16:59;5.10;;;1.73;;
67997;SDS011;54773;53.388;-1.504;2023-04-24T01:22:28;4.30;;;1.38;;
67997;SDS011;54773;53.388;-1.504;2023-04-24T01:25:12;4.80;;;1.40;;
67997;SDS011;54773;53.388;-1.504;2023-04-24T01:27:56;3.80;;;1.33;;
67997;SDS011;54773;53.388;-1.504;2023-04-24T01:30:41;5.67;;;1.40;;
67997;SDS011;54773;53.388;-1.504;2023-04-24T01:33:25;6.10;;;1.58;;
67997;SDS011;54773;53.388;-1.504;2023-04-24T01:36:13;5.57;;;1.50;;
67997;SDS011;54773;53.388;-1.504;2023-04-24T01:38:57;3.85;;;1.60;;
67997;SDS011;54773;53.388;-1.504;2023-04-24T01:41:41;3.07;;;1.47;;
67997;SDS011;54773;53.388;-1.504;2023-04-24T01:44:24;3.97;;;1.10;;
67997;SDS011;54773;53.388;-1.504;2023-04-24T01:47:09;5.68;;;1.77;;
67997;SDS011;54773;53.388;-1.504;2023-04-24T01:49:53;6.90;;;1.50;;
67997;SDS011;54773;53.388;-1.504;2023-04-24T01:52:37;5.63;;;1.60;;
67997;SDS011;54773;53.388;-1.504;2023-04-24T01:55:21;5.30;;;1.30;;
67997;SDS011;54773;53.388;-1.504;2023-04-24T01:58:05;7.17;;;1.83;;
67997;SDS011;54773;53.388;-1.504;2023-04-24T02:00:49;6.00;;;1.50;;
67997;SDS011;54773;53.388;-1.504;2023-04-24T02:03:33;4.55;;;1.48;;
67997;SDS011;54773;53.388;-1.504;2023-04-24T02:06:17;5.90;;;1.37;;
67997;SDS011;54773;53.388;-1.504;2023-04-24T02:09:01;5.93;;;1.90;;
67997;SDS011;54773;53.388;-1.504;2023-04-24T02:11:46;5.25;;;2.25;;
67997;SDS011;54773;53.388;-1.504;2023-04-24T02:14:30;5.28;;;1.55;;
67997;SDS011;54773;53.388;-1.504;2023-04-24T02:17:14;6.78;;;1.60;;
67997;SDS011;54773;53.388;-1.504;2023-04-24T02:19:59;4.47;;;1.23;;
67997;SDS011;54773;53.388;-1.504;2023-04-24T02:22:43;4.53;;;1.10;;
67997;SDS011;54773;53.388;-1.504;2023-04-24T02:25:27;6.50;;;1.73;;
67997;SDS011;54773;53.388;-1.504;2023-04-24T02:28:11;4.80;;;1.20;;
67997;SDS011;54773;53.388;-1.504;2023-04-24T02:30:55;4.15;;;1.67;;
67997;SDS011;54773;53.388;-1.504;2023-04-24T02:33:39;5.73;;;1.70;;
67997;SDS011;54773;53.388;-1.504;2023-04-24T02:36:24;8.27;;;1.60;;
67997;SDS011;54773;53.388;-1.504;2023-04-24T02:39:08;3.40;;;1.50;;
67997;SDS011;54773;53.388;-1.504;2023-04-24T02:41:52;5.03;;;1.38;;
67997;SDS011;54773;53.388;-1.504;2023-04-24T02:44:36;7.63;;;1.47;;
67997;SDS011;54773;53.388;-1.504;2023-04-24T02:47:20;8.10;;;1.55;;
67997;SDS011;54773;53.388;-1.504;2023-04-24T02:50:04;7.57;;;1.77;;
67997;SDS011;54773;53.388;-1.504;2023-04-24T02:52:49;7.10;;;1.50;;
67997;SDS011;54773;53.388;-1.504;2023-04-24T02:55:33;5.10;;;1.43;;
67997;SDS011;54773;53.388;-1.504;2023-04-24T02:58:17;3.63;;;1.27;;
67997;SDS011;54773;53.388;-1.504;2023-04-24T03:01:03;6.43;;;1.77;;
67997;SDS011;54773;53.388;-1.504;2023-04-24T03:03:47;6.20;;;1.55;;
67997;SDS011;54773;53.388;-1.504;2023-04-24T03:06:32;4.97;;;1.33;;
67997;SDS011;54773;53.388;-1.504;2023-04-24T03:09:18;6.05;;;1.90;;
67997;SDS011;54773;53.388;-1.504;2023-04-24T03:12:02;7.75;;;1.70;;
67997;SDS011;54773;53.388;-1.504;2023-04-24T03:14:46;8.25;;;1.60;;
67997;SDS011;54773;53.388;-1.504;2023-04-24T03:17:30;5.80;;;1.85;;
67997;SDS011;54773;53.388;-1.504;2023-04-24T03:20:14;5.77;;;1.60;;
67997;SDS011;54773;53.388;-1.504;2023-04-24T03:22:59;4.65;;;1.35;;
67997;SDS011;54773;53.388;-1.504;2023-04-24T03:25:43;5.68;;;1.60;;
67997;SDS011;54773;53.388;-1.504;2023-04-24T03:28:27;6.10;;;1.30;;
67997;SDS011;54773;53.388;-1.504;2023-04-24T03:31:11;5.38;;;1.80;;
67997;SDS011;54773;53.388;-1.504;2023-04-24T03:33:55;8.27;;;1.52;;
67997;SDS011;54773;53.388;-1.504;2023-04-24T03:36:39;5.97;;;2.00;;
67997;SDS011;54773;53.388;-1.504;2023-04-24T03:39:23;5.97;;;1.55;;
67997;SDS011;54773;53.388;-1.504;2023-04-24T03:42:08;4.97;;;1.70;;
67997;SDS011;54773;53.388;-1.504;2023-04-24T03:44:52;6.70;;;1.48;;
67997;SDS011;54773;53.388;-1.504;2023-04-24T03:47:36;4.20;;;1.40;;
67997;SDS011;54773;53.388;-1.504;2023-04-24T03:50:20;9.70;;;1.92;;
67997;SDS011;54773;53.388;-1.504;2023-04-24T03:53:04;4.80;;;1.48;;
67997;SDS011;54773;53.388;-1.504;2023-04-24T03:55:48;5.25;;;1.50;;
67997;SDS011;54773;53.388;-1.504;2023-04-24T03:58:32;4.25;;;1.30;;
67997;SDS011;54773;53.388;-1.504;2023-04-24T04:01:16;6.50;;;1.60;;
67997;SDS011;54773;53.388;-1.504;2023-04-24T04:04:04;9.48;;;1.42;;
67997;SDS011;54773;53.388;-1.504;2023-04-24T04:06:48;4.97;;;1.50;;
67997;SDS011;54773;53.388;-1.504;2023-04-24T04:09:32;6.57;;;1.95;;
67997;SDS011;54773;53.388;-1.504;2023-04-24T04:12:16;6.93;;;1.73;;
67997;SDS011;54773;53.388;-1.504;2023-04-24T04:15:00;4.10;;;1.40;;
67997;SDS011;54773;53.388;-1.504;2023-04-24T04:17:44;6.60;;;1.83;;
67997;SDS011;54773;53.388;-1.504;2023-04-24T04:20:29;10.00;;;2.05;;
67997;SDS011;54773;53.388;-1.504;2023-04-24T04:23:13;6.43;;;1.92;;
67997;SDS011;54773;53.388;-1.504;2023-04-24T04:25:57;3.38;;;1.50;;
67997;SDS011;54773;53.388;-1.504;2023-04-24T04:28:44;4.47;;;1.70;;
67997;SDS011;54773;53.388;-1.504;2023-04-24T04:31:29;4.28;;;1.48;;
67997;SDS011;54773;53.388;-1.504;2023-04-24T04:34:14;5.43;;;1.60;;
67997;SDS011;54773;53.388;-1.504;2023-04-24T04:37:01;5.80;;;2.20;;
67997;SDS011;54773;53.388;-1.504;2023-04-24T04:39:45;4.18;;;1.70;;
67997;SDS011;54773;53.388;-1.504;2023-04-24T04:42:29;13.90;;;2.03;;
67997;SDS011;54773;53.388;-1.504;2023-04-24T04:45:14;3.72;;;1.63;;
67997;SDS011;54773;53.388;-1.504;2023-04-24T04:48:00;6.70;;;1.60;;
67997;SDS011;54773;53.388;-1.504;2023-04-24T04:50:45;5.25;;;1.50;;
67997;SDS011;54773;53.388;-1.504;2023-04-24T04:53:29;5.97;;;2.07;;
67997;SDS011;54773;53.388;-1.504;2023-04-24T04:56:13;5.28;;;1.52;;
67997;SDS011;54773;53.388;-1.504;2023-04-24T04:58:57;7.63;;;1.73;;
67997;SDS011;54773;53.388;-1.504;2023-04-24T05:01:43;9.98;;;1.85;;
67997;SDS011;54773;53.388;-1.504;2023-04-24T05:04:27;5.60;;;1.50;;
67997;SDS011;54773;53.388;-1.504;2023-04-24T05:07:11;5.60;;;1.48;;
67997;SDS011;54773;53.388;-1.504;2023-04-24T05:09:55;10.43;;;1.83;;
67997;SDS011;54773;53.388;-1.504;2023-04-24T05:12:39;6.13;;;1.40;;
67997;SDS011;54773;53.388;-1.504;2023-04-24T05:15:23;5.63;;;1.48;;
67997;SDS011;54773;53.388;-1.504;2023-04-24T05:18:07;4.30;;;1.35;;
67997;SDS011;54773;53.388;-1.504;2023-04-24T05:20:51;6.30;;;2.03;;
67997;SDS011;54773;53.388;-1.504;2023-04-24T05:23:35;4.45;;;1.50;;
67997;SDS011;54773;53.388;-1.504;2023-04-24T05:26:19;8.20;;;2.33;;
67997;SDS011;54773;53.388;-1.504;2023-04-24T05:29:03;4.80;;;1.83;;
67997;SDS011;54773;53.388;-1.504;2023-04-24T05:31:47;6.97;;;1.75;;
67997;SDS011;54773;53.388;-1.504;2023-04-24T05:34:31;8.00;;;1.75;;
67997;SDS011;54773;53.388;-1.504;2023-04-24T05:37:16;5.80;;;1.85;;
67997;SDS011;54773;53.388;-1.504;2023-04-24T05:40:00;3.38;;;1.33;;
67997;SDS011;54773;53.388;-1.504;2023-04-24T05:42:50;6.03;;;1.55;;
67997;SDS011;54773;53.388;-1.504;2023-04-24T05:45:34;5.35;;;1.70;;
67997;SDS011;54773;53.388;-1.504;2023-04-24T05:48:21;5.30;;;1.90;;
67997;SDS011;54773;53.388;-1.504;2023-04-24T05:51:07;7.70;;;1.70;;
67997;SDS011;54773;53.388;-1.504;2023-04-24T05:53:53;6.45;;;1.95;;
67997;SDS011;54773;53.388;-1.504;2023-04-24T05:56:37;7.40;;;1.80;;
67997;SDS011;54773;53.388;-1.504;2023-04-24T05:59:21;8.82;;;1.90;;
67997;SDS011;54773;53.388;-1.504;2023-04-24T06:02:05;6.57;;;1.95;;
67997;SDS011;54773;53.388;-1.504;2023-04-24T06:04:50;7.75;;;1.90;;
67997;SDS011;54773;53.388;-1.504;2023-04-24T06:07:35;6.07;;;1.85;;
67997;SDS011;54773;53.388;-1.504;2023-04-24T06:10:19;7.25;;;1.90;;
67997;SDS011;54773;53.388;-1.504;2023-04-24T06:13:03;7.50;;;2.00;;
67997;SDS011;54773;53.388;-1.504;2023-04-24T06:15:46;8.97;;;2.10;;
67997;SDS011;54773;53.388;-1.504;2023-04-24T06:18:30;8.40;;;2.40;;
67997;SDS011;54773;53.388;-1.504;2023-04-24T06:21:15;6.95;;;1.67;;
67997;SDS011;54773;53.388;-1.504;2023-04-24T06:23:59;7.45;;;1.95;;
67997;SDS011;54773;53.388;-1.504;2023-04-24T06:26:44;9.85;;;2.05;;
67997;SDS011;54773;53.388;-1.504;2023-04-24T06:29:27;7.43;;;1.97;;
67997;SDS011;54773;53.388;-1.504;2023-04-24T06:32:11;11.05;;;2.58;;
67997;SDS011;54773;53.388;-1.504;2023-04-24T06:34:55;8.27;;;2.07;;
67997;SDS011;54773;53.388;-1.504;2023-04-24T06:37:39;5.13;;;1.65;;
67997;SDS011;54773;53.388;-1.504;2023-04-24T06:40:25;6.80;;;2.20;;
67997;SDS011;54773;53.388;-1.504;2023-04-24T06:43:09;6.43;;;2.30;;
67997;SDS011;54773;53.388;-1.504;2023-04-24T06:45:53;9.95;;;2.05;;
67997;SDS011;54773;53.388;-1.504;2023-04-24T06:48:37;8.57;;;2.30;;
67997;SDS011;54773;53.388;-1.504;2023-04-24T06:51:24;6.90;;;2.28;;
67997;SDS011;54773;53.388;-1.504;2023-04-24T06:54:09;8.25;;;2.20;;
67997;SDS011;54773;53.388;-1.504;2023-04-24T06:56:53;9.45;;;2.35;;
67997;SDS011;54773;53.388;-1.504;2023-04-24T06:59:38;10.60;;;2.85;;
67997;SDS011;54773;53.388;-1.504;2023-04-24T07:02:22;8.40;;;2.63;;
67997;SDS011;54773;53.388;-1.504;2023-04-24T07:05:06;11.40;;;2.47;;
67997;SDS011;54773;53.388;-1.504;2023-04-24T07:07:52;12.48;;;3.00;;
67997;SDS011;54773;53.388;-1.504;2023-04-24T07:10:37;7.65;;;2.20;;
67997;SDS011;54773;53.388;-1.504;2023-04-24T07:13:21;8.73;;;2.92;;
67997;SDS011;54773;53.388;-1.504;2023-04-24T07:16:06;10.48;;;2.53;;
67997;SDS011;54773;53.388;-1.504;2023-04-24T07:18:50;12.70;;;2.95;;
67997;SDS011;54773;53.388;-1.504;2023-04-24T07:21:34;9.85;;;2.75;;
67997;SDS011;54773;53.388;-1.504;2023-04-24T07:24:18;9.18;;;2.90;;
67997;SDS011;54773;53.388;-1.504;2023-04-24T07:27:02;10.50;;;2.70;;
67997;SDS011;54773;53.388;-1.504;2023-04-24T07:29:46;10.95;;;2.55;;
67997;SDS011;54773;53.388;-1.504;2023-04-24T07:32:30;14.18;;;2.92;;
67997;SDS011;54773;53.388;-1.504;2023-04-24T07:35:15;11.20;;;2.97;;
67997;SDS011;54773;53.388;-1.504;2023-04-24T07:38:00;9.32;;;2.30;;
67997;SDS011;54773;53.388;-1.504;2023-04-24T07:40:44;11.52;;;2.75;;
67997;SDS011;54773;53.388;-1.504;2023-04-24T07:43:29;9.82;;;2.55;;
67997;SDS011;54773;53.388;-1.504;2023-04-24T07:46:13;10.02;;;2.10;;
67997;SDS011;54773;53.388;-1.504;2023-04-24T07:48:57;12.90;;;3.53;;
67997;SDS011;54773;53.388;-1.504;2023-04-24T07:51:42;17.15;;;3.13;;
67997;SDS011;54773;53.388;-1.504;2023-04-24T07:54:26;12.93;;;3.10;;
67997;SDS011;54773;53.388;-1.504;2023-04-24T07:57:10;10.45;;;2.95;;
67997;SDS011;54773;53.388;-1.504;2023-04-24T08:02:39;14.98;;;3.70;;
67997;SDS011;54773;53.388;-1.504;2023-04-24T08:05:23;8.47;;;2.97;;
67997;SDS011;54773;53.388;-1.504;2023-04-24T08:08:09;11.45;;;3.58;;
67997;SDS011;54773;53.388;-1.504;2023-04-24T08:10:53;12.73;;;3.05;;
67997;SDS011;54773;53.388;-1.504;2023-04-24T08:13:37;10.50;;;2.80;;
67997;SDS011;54773;53.388;-1.504;2023-04-24T08:16:21;9.95;;;2.75;;
67997;SDS011;54773;53.388;-1.504;2023-04-24T08:19:07;14.98;;;3.85;;
67997;SDS011;54773;53.388;-1.504;2023-04-24T08:21:50;7.22;;;2.70;;
67997;SDS011;54773;53.388;-1.504;2023-04-24T08:24:35;9.83;;;2.80;;
67997;SDS011;54773;53.388;-1.504;2023-04-24T08:27:21;8.90;;;2.72;;
67997;SDS011;54773;53.388;-1.504;2023-04-24T08:30:05;7.00;;;2.67;;
67997;SDS011;54773;53.388;-1.504;2023-04-24T08:32:53;9.70;;;3.20;;
67997;SDS011;54773;53.388;-1.504;2023-04-24T08:35:37;8.07;;;2.72;;
67997;SDS011;54773;53.388;-1.504;2023-04-24T08:38:21;11.05;;;2.60;;
67997;SDS011;54773;53.388;-1.504;2023-04-24T08:41:05;11.32;;;3.95;;
67997;SDS011;54773;53.388;-1.504;2023-04-24T08:43:49;11.13;;;2.50;;
67997;SDS011;54773;53.388;-1.504;2023-04-24T08:46:35;9.18;;;2.65;;
67997;SDS011;54773;53.388;-1.504;2023-04-24T08:49:19;7.35;;;2.50;;
67997;SDS011;54773;53.388;-1.504;2023-04-24T08:52:07;10.32;;;2.70;;
67997;SDS011;54773;53.388;-1.504;2023-04-24T08:54:51;11.00;;;2.80;;
67997;SDS011;54773;53.388;-1.504;2023-04-24T08:57:36;10.45;;;3.13;;
67997;SDS011;54773;53.388;-1.504;2023-04-24T09:00:21;9.45;;;3.10;;
67997;SDS011;54773;53.388;-1.504;2023-04-24T09:03:05;10.18;;;2.85;;
67997;SDS011;54773;53.388;-1.504;2023-04-24T09:05:49;9.93;;;2.67;;
67997;SDS011;54773;53.388;-1.504;2023-04-24T09:08:34;8.85;;;2.67;;
67997;SDS011;54773;53.388;-1.504;2023-04-24T09:11:17;6.75;;;2.40;;
67997;SDS011;54773;53.388;-1.504;2023-04-24T09:14:02;10.13;;;2.97;;
67997;SDS011;54773;53.388;-1.504;2023-04-24T09:16:46;9.63;;;2.53;;
67997;SDS011;54773;53.388;-1.504;2023-04-24T09:19:31;9.40;;;3.08;;
67997;SDS011;54773;53.388;-1.504;2023-04-24T09:22:15;14.15;;;3.38;;
67997;SDS011;54773;53.388;-1.504;2023-04-24T09:25:06;11.70;;;3.40;;
67997;SDS011;54773;53.388;-1.504;2023-04-24T09:27:53;9.70;;;3.00;;
67997;SDS011;54773;53.388;-1.504;2023-04-24T09:30:37;6.75;;;2.92;;
67997;SDS011;54773;53.388;-1.504;2023-04-24T09:33:21;7.97;;;2.87;;
67997;SDS011;54773;53.388;-1.504;2023-04-24T09:36:05;11.73;;;3.05;;
67997;SDS011;54773;53.388;-1.504;2023-04-24T09:38:50;12.18;;;3.35;;
67997;SDS011;54773;53.388;-1.504;2023-04-24T09:41:51;10.63;;;3.35;;
67997;SDS011;54773;53.388;-1.504;2023-04-24T09:44:36;11.35;;;4.22;;
67997;SDS011;54773;53.388;-1.504;2023-04-24T09:47:20;13.40;;;3.80;;
67997;SDS011;54773;53.388;-1.504;2023-04-24T09:50:11;12.63;;;3.80;;
67997;SDS011;54773;53.388;-1.504;2023-04-24T09:52:59;11.90;;;4.10;;
67997;SDS011;54773;53.388;-1.504;2023-04-24T09:55:45;17.50;;;3.58;;
67997;SDS011;54773;53.388;-1.504;2023-04-24T09:58:31;12.25;;;3.83;;
67997;SDS011;54773;53.388;-1.504;2023-04-24T10:01:15;20.30;;;7.13;;
67997;SDS011;54773;53.388;-1.504;2023-04-24T10:04:00;30.70;;;11.75;;
67997;SDS011;54773;53.388;-1.504;2023-04-24T10:09:29;9.73;;;3.42;;
67997;SDS011;54773;53.388;-1.504;2023-04-24T10:12:13;11.77;;;3.70;;
67997;SDS011;54773;53.388;-1.504;2023-04-24T10:14:59;10.85;;;3.28;;
67997;SDS011;54773;53.388;-1.504;2023-04-24T10:17:45;9.05;;;3.35;;
67997;SDS011;54773;53.388;-1.504;2023-04-24T10:20:36;13.30;;;3.05;;
67997;SDS011;54773;53.388;-1.504;2023-04-24T10:23:24;8.13;;;2.40;;
67997;SDS011;54773;53.388;-1.504;2023-04-24T10:26:09;9.27;;;2.95;;
67997;SDS011;54773;53.388;-1.504;2023-04-24T10:28:54;7.85;;;2.83;;
67997;SDS011;54773;53.388;-1.504;2023-04-24T10:31:44;7.15;;;3.05;;
67997;SDS011;54773;53.388;-1.504;2023-04-24T10:34:31;7.25;;;2.38;;
67997;SDS011;54773;53.388;-1.504;2023-04-24T10:37:15;10.55;;;2.25;;
67997;SDS011;54773;53.388;-1.504;2023-04-24T10:40:00;10.05;;;2.97;;
67997;SDS011;54773;53.388;-1.504;2023-04-24T10:42:46;10.60;;;2.30;;
67997;SDS011;54773;53.388;-1.504;2023-04-24T10:45:32;7.40;;;2.00;;
67997;SDS011;54773;53.388;-1.504;2023-04-24T10:48:16;8.05;;;2.80;;
67997;SDS011;54773;53.388;-1.504;2023-04-24T10:51:10;7.35;;;2.70;;
67997;SDS011;54773;53.388;-1.504;2023-04-24T10:53:59;5.97;;;2.67;;
67997;SDS011;54773;53.388;-1.504;2023-04-24T11:02:56;6.53;;;2.80;;
67997;SDS011;54773;53.388;-1.504;2023-04-24T11:08:58;9.50;;;2.60;;
67997;SDS011;54773;53.388;-1.504;2023-04-24T11:12:07;14.75;;;3.60;;
67997;SDS011;54773;53.388;-1.504;2023-04-24T11:17:43;7.32;;;2.97;;
67997;SDS011;54773;53.388;-1.504;2023-04-24T11:20:27;6.72;;;2.55;;
67997;SDS011;54773;53.388;-1.504;2023-04-24T11:23:12;6.70;;;2.63;;
67997;SDS011;54773;53.388;-1.504;2023-04-24T11:26:38;11.00;;;3.05;;
67997;SDS011;54773;53.388;-1.504;2023-04-24T11:29:09;10.20;;;3.35;;
67997;SDS011;54773;53.388;-1.504;2023-04-24T11:31:54;11.18;;;4.43;;
67997;SDS011;54773;53.388;-1.504;2023-04-24T11:34:41;6.13;;;2.60;;
67997;SDS011;54773;53.388;-1.504;2023-04-24T11:37:26;8.23;;;2.63;;
67997;SDS011;54773;53.388;-1.504;2023-04-24T11:40:18;8.98;;;3.10;;
67997;SDS011;54773;53.388;-1.504;2023-04-24T11:43:04;8.32;;;2.80;;
67997;SDS011;54773;53.388;-1.504;2023-04-24T11:45:49;10.93;;;3.70;;
67997;SDS011;54773;53.388;-1.504;2023-04-24T11:48:36;10.52;;;2.55;;
67997;SDS011;54773;53.388;-1.504;2023-04-24T11:51:24;10.88;;;3.30;;
67997;SDS011;54773;53.388;-1.504;2023-04-24T11:54:11;8.55;;;2.80;;
67997;SDS011;54773;53.388;-1.504;2023-04-24T11:56:55;12.73;;;2.73;;
67997;SDS011;54773;53.388;-1.504;2023-04-24T11:59:40;9.48;;;2.88;;
67997;SDS011;54773;53.388;-1.504;2023-04-24T12:02:25;7.53;;;2.38;;
67997;SDS011;54773;53.388;-1.504;2023-04-24T12:05:23;12.50;;;2.42;;
67997;SDS011;54773;53.388;-1.504;2023-04-24T12:08:11;6.72;;;1.95;;
67997;SDS011;54773;53.388;-1.504;2023-04-24T12:10:55;5.90;;;2.20;;
67997;SDS011;54773;53.388;-1.504;2023-04-24T12:13:39;7.47;;;2.53;;
67997;SDS011;54773;53.388;-1.504;2023-04-24T12:16:23;7.83;;;2.27;;
67997;SDS011;54773;53.388;-1.504;2023-04-24T12:19:08;8.75;;;2.47;;
67997;SDS011;54773;53.388;-1.504;2023-04-24T12:22:02;6.30;;;1.80;;
67997;SDS011;54773;53.388;-1.504;2023-04-24T12:25:02;8.13;;;2.05;;
67997;SDS011;54773;53.388;-1.504;2023-04-24T12:27:52;5.22;;;1.77;;
67997;SDS011;54773;53.388;-1.504;2023-04-24T12:30:48;8.52;;;2.33;;
67997;SDS011;54773;53.388;-1.504;2023-04-24T12:33:33;6.73;;;1.77;;
67997;SDS011;54773;53.388;-1.504;2023-04-24T12:36:20;6.88;;;2.20;;
67997;SDS011;54773;53.388;-1.504;2023-04-24T12:39:13;7.95;;;2.20;;
67997;SDS011;54773;53.388;-1.504;2023-04-24T12:41:59;7.63;;;2.97;;
67997;SDS011;54773;53.388;-1.504;2023-04-24T12:44:44;8.88;;;2.40;;
67997;SDS011;54773;53.388;-1.504;2023-04-24T12:47:30;6.30;;;2.15;;
67997;SDS011;54773;53.388;-1.504;2023-04-24T12:50:15;7.15;;;2.17;;
67997;SDS011;54773;53.388;-1.504;2023-04-24T12:55:43;8.95;;;2.00;;
67997;SDS011;54773;53.388;-1.504;2023-04-24T12:58:28;6.07;;;1.88;;
67997;SDS011;54773;53.388;-1.504;2023-04-24T13:01:13;4.25;;;1.58;;
67997;SDS011;54773;53.388;-1.504;2023-04-24T13:03:57;7.35;;;2.10;;
67997;SDS011;54773;53.388;-1.504;2023-04-24T13:06:50;5.78;;;2.00;;
67997;SDS011;54773;53.388;-1.504;2023-04-24T13:09:34;5.17;;;2.33;;
67997;SDS011;54773;53.388;-1.504;2023-04-24T13:12:19;8.32;;;1.90;;
67997;SDS011;54773;53.388;-1.504;2023-04-24T13:17:48;8.85;;;2.35;;
67997;SDS011;54773;53.388;-1.504;2023-04-24T13:20:32;6.10;;;2.72;;
67997;SDS011;54773;53.388;-1.504;2023-04-24T13:23:19;9.60;;;2.60;;
67997;SDS011;54773;53.388;-1.504;2023-04-24T13:26:03;12.55;;;2.92;;
67997;SDS011;54773;53.388;-1.504;2023-04-24T13:28:48;8.33;;;2.20;;
67997;SDS011;54773;53.388;-1.504;2023-04-24T13:31:35;6.43;;;2.28;;
67997;SDS011;54773;53.388;-1.504;2023-04-24T13:34:19;6.05;;;2.45;;
67997;SDS011;54773;53.388;-1.504;2023-04-24T13:37:03;10.17;;;2.40;;
67997;SDS011;54773;53.388;-1.504;2023-04-24T13:42:32;7.70;;;2.63;;
67997;SDS011;54773;53.388;-1.504;2023-04-24T13:45:16;8.35;;;2.67;;
67997;SDS011;54773;53.388;-1.504;2023-04-24T13:48:00;9.52;;;2.40;;
67997;SDS011;54773;53.388;-1.504;2023-04-24T13:50:46;8.27;;;2.17;;
67997;SDS011;54773;53.388;-1.504;2023-04-24T13:53:33;12.07;;;2.72;;
67997;SDS011;54773;53.388;-1.504;2023-04-24T13:56:19;12.07;;;2.95;;
67997;SDS011;54773;53.388;-1.504;2023-04-24T13:59:04;7.18;;;2.55;;
67997;SDS011;54773;53.388;-1.504;2023-04-24T14:01:49;4.97;;;2.30;;
67997;SDS011;54773;53.388;-1.504;2023-04-24T14:04:33;8.82;;;2.13;;
67997;SDS011;54773;53.388;-1.504;2023-04-24T14:07:17;6.03;;;2.43;;
67997;SDS011;54773;53.388;-1.504;2023-04-24T14:10:01;9.00;;;2.75;;
67997;SDS011;54773;53.388;-1.504;2023-04-24T14:12:45;10.25;;;2.35;;
67997;SDS011;54773;53.388;-1.504;2023-04-24T14:15:29;8.37;;;2.80;;
67997;SDS011;54773;53.388;-1.504;2023-04-24T14:18:13;15.60;;;3.33;;
67997;SDS011;54773;53.388;-1.504;2023-04-24T14:20:57;10.53;;;2.97;;
67997;SDS011;54773;53.388;-1.504;2023-04-24T14:23:42;10.48;;;3.20;;
67997;SDS011;54773;53.388;-1.504;2023-04-24T14:26:26;13.27;;;3.53;;
67997;SDS011;54773;53.388;-1.504;2023-04-24T14:29:10;9.60;;;3.42;;
67997;SDS011;54773;53.388;-1.504;2023-04-24T14:31:54;12.68;;;3.47;;
67997;SDS011;54773;53.388;-1.504;2023-04-24T14:34:38;7.90;;;2.83;;
67997;SDS011;54773;53.388;-1.504;2023-04-24T14:37:22;9.33;;;2.60;;
67997;SDS011;54773;53.388;-1.504;2023-04-24T14:40:07;7.25;;;2.90;;
67997;SDS011;54773;53.388;-1.504;2023-04-24T14:42:52;9.25;;;2.10;;
67997;SDS011;54773;53.388;-1.504;2023-04-24T14:45:36;8.47;;;2.80;;
67997;SDS011;54773;53.388;-1.504;2023-04-24T14:48:21;7.45;;;2.08;;
67997;SDS011;54773;53.388;-1.504;2023-04-24T14:51:05;9.27;;;2.15;;
67997;SDS011;54773;53.388;-1.504;2023-04-24T14:53:49;7.82;;;2.10;;
67997;SDS011;54773;53.388;-1.504;2023-04-24T14:56:36;7.22;;;2.10;;
67997;SDS011;54773;53.388;-1.504;2023-04-24T14:59:21;5.43;;;2.00;;
67997;SDS011;54773;53.388;-1.504;2023-04-24T15:02:06;12.25;;;2.25;;
67997;SDS011;54773;53.388;-1.504;2023-04-24T15:04:49;6.53;;;2.33;;
67997;SDS011;54773;53.388;-1.504;2023-04-24T15:07:33;7.43;;;2.17;;
67997;SDS011;54773;53.388;-1.504;2023-04-24T15:10:19;7.32;;;2.00;;
67997;SDS011;54773;53.388;-1.504;2023-04-24T15:13:06;9.95;;;2.33;;
67997;SDS011;54773;53.388;-1.504;2023-04-24T15:15:50;9.90;;;2.13;;
67997;SDS011;54773;53.388;-1.504;2023-04-24T15:18:34;8.88;;;2.28;;
67997;SDS011;54773;53.388;-1.504;2023-04-24T15:21:18;8.80;;;2.42;;
67997;SDS011;54773;53.388;-1.504;2023-04-24T15:24:03;8.60;;;2.40;;
67997;SDS011;54773;53.388;-1.504;2023-04-24T15:26:48;9.60;;;2.67;;
67997;SDS011;54773;53.388;-1.504;2023-04-24T15:29:32;9.55;;;2.97;;
67997;SDS011;54773;53.388;-1.504;2023-04-24T15:32:16;11.23;;;2.57;;
67997;SDS011;54773;53.388;-1.504;2023-04-24T15:35:00;8.55;;;2.60;;
67997;SDS011;54773;53.388;-1.504;2023-04-24T15:37:44;6.17;;;2.20;;
67997;SDS011;54773;53.388;-1.504;2023-04-24T15:40:28;14.20;;;4.05;;
67997;SDS011;54773;53.388;-1.504;2023-04-24T15:43:12;9.40;;;2.63;;
67997;SDS011;54773;53.388;-1.504;2023-04-24T15:45:56;7.63;;;2.38;;
67997;SDS011;54773;53.388;-1.504;2023-04-24T15:48:44;10.18;;;2.63;;
67997;SDS011;54773;53.388;-1.504;2023-04-24T15:51:27;9.98;;;2.58;;
67997;SDS011;54773;53.388;-1.504;2023-04-24T15:54:11;13.57;;;2.30;;
67997;SDS011;54773;53.388;-1.504;2023-04-24T15:56:55;8.43;;;2.80;;
67997;SDS011;54773;53.388;-1.504;2023-04-24T15:59:39;12.10;;;2.93;;
67997;SDS011;54773;53.388;-1.504;2023-04-24T16:02:24;7.03;;;2.78;;
67997;SDS011;54773;53.388;-1.504;2023-04-24T16:05:10;7.47;;;2.70;;
67997;SDS011;54773;53.388;-1.504;2023-04-24T16:07:54;10.95;;;3.42;;
67997;SDS011;54773;53.388;-1.504;2023-04-24T16:10:38;11.52;;;4.00;;
67997;SDS011;54773;53.388;-1.504;2023-04-24T16:13:23;8.18;;;2.83;;
67997;SDS011;54773;53.388;-1.504;2023-04-24T16:16:12;10.50;;;3.53;;
67997;SDS011;54773;53.388;-1.504;2023-04-24T16:19:02;10.82;;;3.67;;
67997;SDS011;54773;53.388;-1.504;2023-04-24T16:21:46;13.00;;;3.30;;
67997;SDS011;54773;53.388;-1.504;2023-04-24T16:24:30;9.40;;;3.25;;
67997;SDS011;54773;53.388;-1.504;2023-04-24T16:27:14;12.97;;;3.53;;
67997;SDS011;54773;53.388;-1.504;2023-04-24T16:29:58;12.50;;;3.60;;
67997;SDS011;54773;53.388;-1.504;2023-04-24T16:32:45;7.13;;;2.97;;
67997;SDS011;54773;53.388;-1.504;2023-04-24T16:35:29;10.73;;;3.50;;
67997;SDS011;54773;53.388;-1.504;2023-04-24T16:38:16;10.07;;;3.00;;
67997;SDS011;54773;53.388;-1.504;2023-04-24T16:41:00;12.27;;;3.43;;
67997;SDS011;54773;53.388;-1.504;2023-04-24T16:43:44;11.85;;;3.15;;